Orchard City, Colorado
Current Conditions -  °F | °C
As of 10:15 AM on Saturday 20 Dec 2014 (Local Time) from KAJZ Reporting Station
Overcast Overcast  
Wind Chill: 31°   Ceiling: 8000
Heat Index: 31°   Visibility: 10mi
Dew Point: 25°   Wind: 0mph
Humidity: 79%   Direction: NA
Pressure: 30.21"   Gusts: NA
Location:  38.7882°N, 107.986°W
Report Text: KAJZ 201715Z AUTO 00000KT 10SM OVC080 00/M04 A3021 RMK AO2 T10051038
Loading
Personal Weather Stations






























Interactive Weather Map New forecast layout! Learn more

10-Day Weather Forecast

Advertisements
Track Severe Weather on mobile